sensor_id;sensor_type;location;lat;lon;timestamp;P1;durP1;ratioP1;P2;durP2;ratioP2
53879;SDS011;39791;53.184;5.486;2023-08-12T00:00:16;36.28;;;32.63;;
53879;SDS011;39791;53.184;5.486;2023-08-12T00:02:42;35.70;;;32.33;;
53879;SDS011;39791;53.184;5.486;2023-08-12T00:05:08;35.20;;;31.95;;
53879;SDS011;39791;53.184;5.486;2023-08-12T00:07:36;35.63;;;31.98;;
53879;SDS011;39791;53.184;5.486;2023-08-12T00:10:02;35.45;;;32.05;;
53879;SDS011;39791;53.184;5.486;2023-08-12T00:12:29;35.80;;;32.28;;
53879;SDS011;39791;53.184;5.486;2023-08-12T00:14:58;35.20;;;31.80;;
53879;SDS011;39791;53.184;5.486;2023-08-12T00:17:24;36.25;;;32.60;;
53879;SDS011;39791;53.184;5.486;2023-08-12T00:19:49;37.25;;;32.05;;
53879;SDS011;39791;53.184;5.486;2023-08-12T00:22:15;35.70;;;32.13;;
53879;SDS011;39791;53.184;5.486;2023-08-12T00:24:41;34.97;;;31.75;;
53879;SDS011;39791;53.184;5.486;2023-08-12T00:27:06;35.10;;;31.90;;
53879;SDS011;39791;53.184;5.486;2023-08-12T00:29:38;35.20;;;31.83;;
53879;SDS011;39791;53.184;5.486;2023-08-12T00:32:04;36.10;;;32.65;;
53879;SDS011;39791;53.184;5.486;2023-08-12T00:34:30;34.53;;;31.23;;
53879;SDS011;39791;53.184;5.486;2023-08-12T00:36:56;35.10;;;32.10;;
53879;SDS011;39791;53.184;5.486;2023-08-12T00:39:21;34.53;;;31.42;;
53879;SDS011;39791;53.184;5.486;2023-08-12T00:41:47;35.33;;;31.98;;
53879;SDS011;39791;53.184;5.486;2023-08-12T00:44:13;35.20;;;31.88;;
53879;SDS011;39791;53.184;5.486;2023-08-12T00:46:40;34.80;;;31.25;;
53879;SDS011;39791;53.184;5.486;2023-08-12T00:49:07;34.13;;;31.10;;
53879;SDS011;39791;53.184;5.486;2023-08-12T00:51:33;34.17;;;31.00;;
53879;SDS011;39791;53.184;5.486;2023-08-12T00:54:00;35.47;;;31.65;;
53879;SDS011;39791;53.184;5.486;2023-08-12T00:56:29;35.28;;;31.70;;
53879;SDS011;39791;53.184;5.486;2023-08-12T00:58:56;35.10;;;31.80;;
53879;SDS011;39791;53.184;5.486;2023-08-12T01:01:23;33.50;;;30.45;;
53879;SDS011;39791;53.184;5.486;2023-08-12T01:03:49;34.90;;;31.63;;
53879;SDS011;39791;53.184;5.486;2023-08-12T01:06:15;34.88;;;31.17;;
53879;SDS011;39791;53.184;5.486;2023-08-12T01:08:40;33.80;;;30.60;;
53879;SDS011;39791;53.184;5.486;2023-08-12T01:11:10;34.10;;;30.90;;
53879;SDS011;39791;53.184;5.486;2023-08-12T01:13:46;34.03;;;30.92;;
53879;SDS011;39791;53.184;5.486;2023-08-12T01:16:22;34.03;;;30.77;;
53879;SDS011;39791;53.184;5.486;2023-08-12T01:18:49;34.33;;;31.38;;
53879;SDS011;39791;53.184;5.486;2023-08-12T01:21:16;34.88;;;31.33;;
53879;SDS011;39791;53.184;5.486;2023-08-12T01:23:42;35.08;;;31.73;;
53879;SDS011;39791;53.184;5.486;2023-08-12T01:26:09;34.40;;;30.83;;
53879;SDS011;39791;53.184;5.486;2023-08-12T01:28:35;35.05;;;31.75;;
53879;SDS011;39791;53.184;5.486;2023-08-12T01:31:15;34.92;;;31.23;;
53879;SDS011;39791;53.184;5.486;2023-08-12T01:33:54;33.33;;;30.40;;
53879;SDS011;39791;53.184;5.486;2023-08-12T01:36:23;34.50;;;31.13;;
53879;SDS011;39791;53.184;5.486;2023-08-12T01:38:51;34.22;;;31.13;;
53879;SDS011;39791;53.184;5.486;2023-08-12T01:41:19;35.30;;;31.80;;
53879;SDS011;39791;53.184;5.486;2023-08-12T01:43:47;35.22;;;31.73;;
53879;SDS011;39791;53.184;5.486;2023-08-12T01:46:13;35.15;;;31.98;;
53879;SDS011;39791;53.184;5.486;2023-08-12T01:48:38;36.10;;;32.58;;
53879;SDS011;39791;53.184;5.486;2023-08-12T01:51:04;35.78;;;32.10;;
53879;SDS011;39791;53.184;5.486;2023-08-12T01:53:30;35.70;;;32.30;;
53879;SDS011;39791;53.184;5.486;2023-08-12T01:55:56;35.00;;;31.77;;
53879;SDS011;39791;53.184;5.486;2023-08-12T01:58:22;35.15;;;31.65;;
53879;SDS011;39791;53.184;5.486;2023-08-12T02:00:47;35.25;;;31.95;;
53879;SDS011;39791;53.184;5.486;2023-08-12T02:03:13;36.10;;;32.30;;
53879;SDS011;39791;53.184;5.486;2023-08-12T02:05:38;35.45;;;31.95;;
53879;SDS011;39791;53.184;5.486;2023-08-12T02:08:05;35.60;;;32.15;;
53879;SDS011;39791;53.184;5.486;2023-08-12T02:10:31;35.83;;;32.35;;
53879;SDS011;39791;53.184;5.486;2023-08-12T02:12:57;36.70;;;31.83;;
53879;SDS011;39791;53.184;5.486;2023-08-12T02:15:22;36.22;;;32.63;;
53879;SDS011;39791;53.184;5.486;2023-08-12T02:17:48;36.42;;;32.67;;
53879;SDS011;39791;53.184;5.486;2023-08-12T02:20:13;35.15;;;31.83;;
53879;SDS011;39791;53.184;5.486;2023-08-12T02:22:39;34.83;;;31.52;;
53879;SDS011;39791;53.184;5.486;2023-08-12T02:25:04;35.17;;;31.88;;
53879;SDS011;39791;53.184;5.486;2023-08-12T02:27:30;35.67;;;32.08;;
53879;SDS011;39791;53.184;5.486;2023-08-12T02:29:56;36.15;;;32.33;;
53879;SDS011;39791;53.184;5.486;2023-08-12T02:32:21;35.05;;;31.75;;
53879;SDS011;39791;53.184;5.486;2023-08-12T02:34:47;35.35;;;31.70;;
53879;SDS011;39791;53.184;5.486;2023-08-12T02:37:12;34.85;;;31.02;;
53879;SDS011;39791;53.184;5.486;2023-08-12T02:39:38;34.75;;;31.55;;
53879;SDS011;39791;53.184;5.486;2023-08-12T02:42:04;36.38;;;32.88;;
53879;SDS011;39791;53.184;5.486;2023-08-12T02:44:30;35.75;;;32.30;;
53879;SDS011;39791;53.184;5.486;2023-08-12T02:46:55;36.83;;;33.53;;
53879;SDS011;39791;53.184;5.486;2023-08-12T02:49:21;35.88;;;32.42;;
53879;SDS011;39791;53.184;5.486;2023-08-12T02:51:46;35.72;;;32.35;;
53879;SDS011;39791;53.184;5.486;2023-08-12T02:54:12;36.05;;;32.70;;
53879;SDS011;39791;53.184;5.486;2023-08-12T02:56:37;36.08;;;32.28;;
53879;SDS011;39791;53.184;5.486;2023-08-12T02:59:03;35.28;;;31.75;;
53879;SDS011;39791;53.184;5.486;2023-08-12T03:01:29;36.13;;;32.63;;
53879;SDS011;39791;53.184;5.486;2023-08-12T03:03:55;36.17;;;32.47;;
53879;SDS011;39791;53.184;5.486;2023-08-12T03:06:20;36.17;;;32.65;;
53879;SDS011;39791;53.184;5.486;2023-08-12T03:08:46;37.28;;;33.65;;
53879;SDS011;39791;53.184;5.486;2023-08-12T03:11:12;35.10;;;31.90;;
53879;SDS011;39791;53.184;5.486;2023-08-12T03:13:37;35.45;;;32.05;;
53879;SDS011;39791;53.184;5.486;2023-08-12T03:16:03;38.85;;;33.65;;
53879;SDS011;39791;53.184;5.486;2023-08-12T03:18:29;34.95;;;31.67;;
53879;SDS011;39791;53.184;5.486;2023-08-12T03:20:54;34.92;;;31.63;;
53879;SDS011;39791;53.184;5.486;2023-08-12T03:23:20;35.95;;;32.45;;
53879;SDS011;39791;53.184;5.486;2023-08-12T03:25:48;36.55;;;33.17;;
53879;SDS011;39791;53.184;5.486;2023-08-12T03:28:14;37.25;;;33.55;;
53879;SDS011;39791;53.184;5.486;2023-08-12T03:30:41;37.67;;;33.78;;
53879;SDS011;39791;53.184;5.486;2023-08-12T03:33:06;39.45;;;33.72;;
53879;SDS011;39791;53.184;5.486;2023-08-12T03:35:32;37.05;;;33.45;;
53879;SDS011;39791;53.184;5.486;2023-08-12T03:37:57;37.55;;;33.92;;
53879;SDS011;39791;53.184;5.486;2023-08-12T03:40:23;38.42;;;34.60;;
53879;SDS011;39791;53.184;5.486;2023-08-12T03:42:48;37.13;;;33.53;;
53879;SDS011;39791;53.184;5.486;2023-08-12T03:45:14;37.45;;;33.45;;
53879;SDS011;39791;53.184;5.486;2023-08-12T03:47:39;36.75;;;32.38;;
53879;SDS011;39791;53.184;5.486;2023-08-12T03:50:05;38.25;;;34.28;;
53879;SDS011;39791;53.184;5.486;2023-08-12T03:52:31;38.65;;;34.58;;
53879;SDS011;39791;53.184;5.486;2023-08-12T03:54:57;37.83;;;33.95;;
53879;SDS011;39791;53.184;5.486;2023-08-12T03:57:22;37.95;;;34.22;;
53879;SDS011;39791;53.184;5.486;2023-08-12T03:59:48;39.63;;;35.33;;
53879;SDS011;39791;53.184;5.486;2023-08-12T04:02:13;39.35;;;35.08;;
53879;SDS011;39791;53.184;5.486;2023-08-12T04:04:39;37.25;;;33.78;;
53879;SDS011;39791;53.184;5.486;2023-08-12T04:07:05;37.50;;;33.88;;
53879;SDS011;39791;53.184;5.486;2023-08-12T04:09:30;37.75;;;34.03;;
53879;SDS011;39791;53.184;5.486;2023-08-12T04:11:56;36.60;;;32.92;;
53879;SDS011;39791;53.184;5.486;2023-08-12T04:14:21;37.35;;;33.58;;
53879;SDS011;39791;53.184;5.486;2023-08-12T04:16:47;35.63;;;32.33;;
53879;SDS011;39791;53.184;5.486;2023-08-12T04:19:13;36.17;;;32.58;;
53879;SDS011;39791;53.184;5.486;2023-08-12T04:21:38;36.90;;;33.20;;
53879;SDS011;39791;53.184;5.486;2023-08-12T04:24:04;36.40;;;32.70;;
53879;SDS011;39791;53.184;5.486;2023-08-12T04:26:30;36.60;;;33.08;;
53879;SDS011;39791;53.184;5.486;2023-08-12T04:28:55;36.30;;;32.92;;
53879;SDS011;39791;53.184;5.486;2023-08-12T04:31:21;38.15;;;34.45;;
53879;SDS011;39791;53.184;5.486;2023-08-12T04:33:46;37.10;;;33.33;;
53879;SDS011;39791;53.184;5.486;2023-08-12T04:36:12;37.72;;;33.83;;
53879;SDS011;39791;53.184;5.486;2023-08-12T04:38:38;37.25;;;33.15;;
53879;SDS011;39791;53.184;5.486;2023-08-12T04:41:04;38.42;;;34.30;;
53879;SDS011;39791;53.184;5.486;2023-08-12T04:43:29;37.58;;;33.63;;
53879;SDS011;39791;53.184;5.486;2023-08-12T04:45:55;36.72;;;33.33;;
53879;SDS011;39791;53.184;5.486;2023-08-12T04:48:21;37.75;;;33.75;;
53879;SDS011;39791;53.184;5.486;2023-08-12T04:50:46;38.70;;;34.38;;
53879;SDS011;39791;53.184;5.486;2023-08-12T04:53:12;38.33;;;34.63;;
53879;SDS011;39791;53.184;5.486;2023-08-12T04:55:37;40.50;;;35.00;;
53879;SDS011;39791;53.184;5.486;2023-08-12T04:58:03;37.92;;;34.10;;
53879;SDS011;39791;53.184;5.486;2023-08-12T05:00:29;38.33;;;34.42;;
53879;SDS011;39791;53.184;5.486;2023-08-12T05:02:55;39.47;;;35.22;;
53879;SDS011;39791;53.184;5.486;2023-08-12T05:05:20;39.72;;;35.78;;
53879;SDS011;39791;53.184;5.486;2023-08-12T05:07:46;42.92;;;36.30;;
53879;SDS011;39791;53.184;5.486;2023-08-12T05:10:14;37.85;;;33.97;;
53879;SDS011;39791;53.184;5.486;2023-08-12T05:12:41;39.25;;;35.45;;
53879;SDS011;39791;53.184;5.486;2023-08-12T05:15:08;40.05;;;35.85;;
53879;SDS011;39791;53.184;5.486;2023-08-12T05:17:34;39.63;;;35.70;;
53879;SDS011;39791;53.184;5.486;2023-08-12T05:19:59;39.45;;;35.30;;
53879;SDS011;39791;53.184;5.486;2023-08-12T05:22:25;41.15;;;36.38;;
53879;SDS011;39791;53.184;5.486;2023-08-12T05:24:50;41.03;;;36.92;;
53879;SDS011;39791;53.184;5.486;2023-08-12T05:27:16;41.75;;;36.08;;
53879;SDS011;39791;53.184;5.486;2023-08-12T05:29:41;40.08;;;35.20;;
53879;SDS011;39791;53.184;5.486;2023-08-12T05:32:07;42.67;;;36.88;;
53879;SDS011;39791;53.184;5.486;2023-08-12T05:34:32;41.17;;;36.70;;
53879;SDS011;39791;53.184;5.486;2023-08-12T05:36:58;43.03;;;38.38;;
53879;SDS011;39791;53.184;5.486;2023-08-12T05:39:23;43.00;;;38.40;;
53879;SDS011;39791;53.184;5.486;2023-08-12T05:41:49;41.92;;;37.70;;
53879;SDS011;39791;53.184;5.486;2023-08-12T05:44:17;44.50;;;39.65;;
53879;SDS011;39791;53.184;5.486;2023-08-12T05:46:42;44.53;;;38.63;;
53879;SDS011;39791;53.184;5.486;2023-08-12T05:49:08;44.10;;;38.20;;
53879;SDS011;39791;53.184;5.486;2023-08-12T05:51:33;45.70;;;37.85;;
53879;SDS011;39791;53.184;5.486;2023-08-12T05:53:59;43.65;;;39.15;;
53879;SDS011;39791;53.184;5.486;2023-08-12T05:56:24;46.30;;;39.30;;
53879;SDS011;39791;53.184;5.486;2023-08-12T05:58:50;43.22;;;38.45;;
53879;SDS011;39791;53.184;5.486;2023-08-12T06:01:16;43.50;;;38.78;;
53879;SDS011;39791;53.184;5.486;2023-08-12T06:03:41;44.03;;;39.55;;
53879;SDS011;39791;53.184;5.486;2023-08-12T06:06:07;47.92;;;40.65;;
53879;SDS011;39791;53.184;5.486;2023-08-12T06:08:33;48.45;;;40.63;;
53879;SDS011;39791;53.184;5.486;2023-08-12T06:10:59;45.00;;;40.30;;
53879;SDS011;39791;53.184;5.486;2023-08-12T06:13:24;47.75;;;42.30;;
53879;SDS011;39791;53.184;5.486;2023-08-12T06:15:50;47.17;;;41.38;;
53879;SDS011;39791;53.184;5.486;2023-08-12T06:18:16;45.88;;;41.05;;
53879;SDS011;39791;53.184;5.486;2023-08-12T06:20:41;49.13;;;41.83;;
53879;SDS011;39791;53.184;5.486;2023-08-12T06:23:07;49.85;;;43.10;;
53879;SDS011;39791;53.184;5.486;2023-08-12T06:25:32;49.80;;;42.40;;
53879;SDS011;39791;53.184;5.486;2023-08-12T06:27:58;48.40;;;43.10;;
53879;SDS011;39791;53.184;5.486;2023-08-12T06:30:24;48.67;;;43.20;;
53879;SDS011;39791;53.184;5.486;2023-08-12T06:32:49;48.38;;;42.53;;
53879;SDS011;39791;53.184;5.486;2023-08-12T06:35:15;49.45;;;43.85;;
53879;SDS011;39791;53.184;5.486;2023-08-12T06:37:40;48.85;;;43.47;;
53879;SDS011;39791;53.184;5.486;2023-08-12T06:40:06;50.38;;;44.95;;
53879;SDS011;39791;53.184;5.486;2023-08-12T06:42:32;48.50;;;43.47;;
53879;SDS011;39791;53.184;5.486;2023-08-12T06:44:58;49.72;;;44.42;;
53879;SDS011;39791;53.184;5.486;2023-08-12T06:47:25;47.60;;;42.67;;
53879;SDS011;39791;53.184;5.486;2023-08-12T06:49:52;52.10;;;44.45;;
53879;SDS011;39791;53.184;5.486;2023-08-12T06:52:18;48.33;;;43.10;;
53879;SDS011;39791;53.184;5.486;2023-08-12T06:54:43;49.53;;;44.65;;
53879;SDS011;39791;53.184;5.486;2023-08-12T06:57:09;48.22;;;43.40;;
53879;SDS011;39791;53.184;5.486;2023-08-12T06:59:36;48.45;;;43.55;;
53879;SDS011;39791;53.184;5.486;2023-08-12T07:02:02;48.33;;;43.50;;
53879;SDS011;39791;53.184;5.486;2023-08-12T07:04:28;48.40;;;43.47;;
53879;SDS011;39791;53.184;5.486;2023-08-12T07:06:54;47.97;;;42.97;;
53879;SDS011;39791;53.184;5.486;2023-08-12T07:09:20;47.70;;;42.65;;
53879;SDS011;39791;53.184;5.486;2023-08-12T07:11:45;47.58;;;42.97;;
53879;SDS011;39791;53.184;5.486;2023-08-12T07:14:11;47.72;;;42.83;;
53879;SDS011;39791;53.184;5.486;2023-08-12T07:16:36;48.03;;;43.17;;
53879;SDS011;39791;53.184;5.486;2023-08-12T07:19:02;48.08;;;42.90;;
53879;SDS011;39791;53.184;5.486;2023-08-12T07:21:27;48.00;;;43.20;;
53879;SDS011;39791;53.184;5.486;2023-08-12T07:23:53;48.30;;;42.85;;
53879;SDS011;39791;53.184;5.486;2023-08-12T07:26:19;48.38;;;43.58;;
53879;SDS011;39791;53.184;5.486;2023-08-12T07:28:44;51.08;;;45.88;;
53879;SDS011;39791;53.184;5.486;2023-08-12T07:31:10;51.53;;;46.35;;
53879;SDS011;39791;53.184;5.486;2023-08-12T07:33:35;49.28;;;44.22;;
53879;SDS011;39791;53.184;5.486;2023-08-12T07:36:01;55.17;;;44.85;;
53879;SDS011;39791;53.184;5.486;2023-08-12T07:38:27;49.92;;;44.65;;
53879;SDS011;39791;53.184;5.486;2023-08-12T07:40:53;50.60;;;45.42;;
53879;SDS011;39791;53.184;5.486;2023-08-12T07:43:19;49.40;;;44.30;;
53879;SDS011;39791;53.184;5.486;2023-08-12T07:45:44;50.13;;;44.75;;
53879;SDS011;39791;53.184;5.486;2023-08-12T07:48:10;50.75;;;45.55;;
53879;SDS011;39791;53.184;5.486;2023-08-12T07:50:35;51.13;;;45.75;;
53879;SDS011;39791;53.184;5.486;2023-08-12T07:53:01;50.95;;;45.33;;
53879;SDS011;39791;53.184;5.486;2023-08-12T07:55:27;51.90;;;46.40;;
53879;SDS011;39791;53.184;5.486;2023-08-12T07:57:53;52.25;;;47.15;;
53879;SDS011;39791;53.184;5.486;2023-08-12T08:00:18;53.35;;;47.67;;
53879;SDS011;39791;53.184;5.486;2023-08-12T08:02:44;51.22;;;45.72;;
53879;SDS011;39791;53.184;5.486;2023-08-12T08:05:10;54.38;;;48.55;;
53879;SDS011;39791;53.184;5.486;2023-08-12T08:07:35;53.78;;;48.42;;
53879;SDS011;39791;53.184;5.486;2023-08-12T08:10:01;52.47;;;47.22;;
53879;SDS011;39791;53.184;5.486;2023-08-12T08:12:27;55.10;;;49.25;;
53879;SDS011;39791;53.184;5.486;2023-08-12T08:14:52;55.22;;;49.47;;
53879;SDS011;39791;53.184;5.486;2023-08-12T08:17:18;54.75;;;48.90;;
53879;SDS011;39791;53.184;5.486;2023-08-12T08:19:43;54.63;;;49.00;;
53879;SDS011;39791;53.184;5.486;2023-08-12T08:22:09;55.10;;;49.50;;
53879;SDS011;39791;53.184;5.486;2023-08-12T08:24:34;54.35;;;48.72;;
53879;SDS011;39791;53.184;5.486;2023-08-12T08:27:00;54.00;;;48.75;;
53879;SDS011;39791;53.184;5.486;2023-08-12T08:29:25;63.10;;;48.80;;
53879;SDS011;39791;53.184;5.486;2023-08-12T08:31:51;50.78;;;45.70;;
53879;SDS011;39791;53.184;5.486;2023-08-12T08:34:17;52.45;;;46.75;;
53879;SDS011;39791;53.184;5.486;2023-08-12T08:36:42;51.38;;;45.92;;
53879;SDS011;39791;53.184;5.486;2023-08-12T08:39:08;50.33;;;45.05;;
53879;SDS011;39791;53.184;5.486;2023-08-12T08:41:35;51.90;;;46.33;;
53879;SDS011;39791;53.184;5.486;2023-08-12T08:44:06;49.58;;;42.78;;
53879;SDS011;39791;53.184;5.486;2023-08-12T08:46:33;42.47;;;38.17;;
53879;SDS011;39791;53.184;5.486;2023-08-12T08:48:59;37.55;;;33.83;;
53879;SDS011;39791;53.184;5.486;2023-08-12T08:51:31;36.17;;;31.83;;
53879;SDS011;39791;53.184;5.486;2023-08-12T08:53:57;35.20;;;31.60;;
53879;SDS011;39791;53.184;5.486;2023-08-12T08:56:23;35.38;;;31.73;;
53879;SDS011;39791;53.184;5.486;2023-08-12T08:58:49;35.45;;;31.90;;
53879;SDS011;39791;53.184;5.486;2023-08-12T09:01:18;36.53;;;32.38;;
53879;SDS011;39791;53.184;5.486;2023-08-12T09:03:47;35.85;;;32.00;;
53879;SDS011;39791;53.184;5.486;2023-08-12T09:06:17;31.33;;;28.20;;
53879;SDS011;39791;53.184;5.486;2023-08-12T09:08:45;29.83;;;27.00;;
53879;SDS011;39791;53.184;5.486;2023-08-12T09:11:13;29.95;;;27.08;;
53879;SDS011;39791;53.184;5.486;2023-08-12T09:13:39;30.05;;;26.98;;
53879;SDS011;39791;53.184;5.486;2023-08-12T09:16:05;30.00;;;27.10;;
53879;SDS011;39791;53.184;5.486;2023-08-12T09:18:30;29.08;;;26.50;;
53879;SDS011;39791;53.184;5.486;2023-08-12T09:20:56;30.65;;;27.75;;
53879;SDS011;39791;53.184;5.486;2023-08-12T09:23:22;31.95;;;28.90;;
53879;SDS011;39791;53.184;5.486;2023-08-12T09:25:48;31.30;;;28.23;;
53879;SDS011;39791;53.184;5.486;2023-08-12T09:28:13;30.98;;;27.98;;
53879;SDS011;39791;53.184;5.486;2023-08-12T09:30:39;31.23;;;28.35;;
53879;SDS011;39791;53.184;5.486;2023-08-12T09:33:07;30.23;;;27.55;;
53879;SDS011;39791;53.184;5.486;2023-08-12T09:35:34;31.80;;;28.80;;
53879;SDS011;39791;53.184;5.486;2023-08-12T09:38:04;31.65;;;28.95;;
53879;SDS011;39791;53.184;5.486;2023-08-12T09:43:05;32.80;;;28.83;;
53879;SDS011;39791;53.184;5.486;2023-08-12T09:45:31;29.63;;;26.60;;
53879;SDS011;39791;53.184;5.486;2023-08-12T09:47:58;35.70;;;27.15;;
53879;SDS011;39791;53.184;5.486;2023-08-12T09:50:24;29.10;;;26.30;;
53879;SDS011;39791;53.184;5.486;2023-08-12T09:52:51;30.55;;;27.33;;
53879;SDS011;39791;53.184;5.486;2023-08-12T09:55:18;31.05;;;28.02;;
53879;SDS011;39791;53.184;5.486;2023-08-12T09:57:47;32.80;;;29.60;;
53879;SDS011;39791;53.184;5.486;2023-08-12T10:00:18;32.58;;;29.10;;
53879;SDS011;39791;53.184;5.486;2023-08-12T10:02:46;33.13;;;29.83;;
53879;SDS011;39791;53.184;5.486;2023-08-12T10:05:15;32.53;;;29.42;;
53879;SDS011;39791;53.184;5.486;2023-08-12T10:07:45;33.50;;;30.63;;
53879;SDS011;39791;53.184;5.486;2023-08-12T10:10:12;35.63;;;31.83;;
53879;SDS011;39791;53.184;5.486;2023-08-12T10:12:38;36.35;;;32.50;;
53879;SDS011;39791;53.184;5.486;2023-08-12T10:15:05;36.65;;;31.48;;
53879;SDS011;39791;53.184;5.486;2023-08-12T10:17:32;37.17;;;31.90;;
53879;SDS011;39791;53.184;5.486;2023-08-12T10:19:58;38.40;;;32.55;;
53879;SDS011;39791;53.184;5.486;2023-08-12T10:22:29;38.45;;;32.10;;
53879;SDS011;39791;53.184;5.486;2023-08-12T10:24:56;34.90;;;31.45;;
53879;SDS011;39791;53.184;5.486;2023-08-12T10:27:23;35.35;;;31.70;;
53879;SDS011;39791;53.184;5.486;2023-08-12T10:29:50;32.45;;;29.45;;
53879;SDS011;39791;53.184;5.486;2023-08-12T10:32:16;32.35;;;29.33;;
53879;SDS011;39791;53.184;5.486;2023-08-12T10:34:42;25.52;;;23.33;;
53879;SDS011;39791;53.184;5.486;2023-08-12T10:37:08;22.90;;;21.10;;
53879;SDS011;39791;53.184;5.486;2023-08-12T10:39:35;24.75;;;22.58;;
53879;SDS011;39791;53.184;5.486;2023-08-12T10:42:02;24.10;;;22.05;;
53879;SDS011;39791;53.184;5.486;2023-08-12T10:44:40;24.05;;;22.05;;
53879;SDS011;39791;53.184;5.486;2023-08-12T10:47:19;25.02;;;23.02;;
53879;SDS011;39791;53.184;5.486;2023-08-12T10:49:48;26.00;;;23.80;;
53879;SDS011;39791;53.184;5.486;2023-08-12T10:52:27;27.60;;;25.10;;
53879;SDS011;39791;53.184;5.486;2023-08-12T10:55:15;29.48;;;26.77;;
53879;SDS011;39791;53.184;5.486;2023-08-12T10:57:42;28.75;;;26.25;;
53879;SDS011;39791;53.184;5.486;2023-08-12T11:00:15;30.17;;;27.38;;
53879;SDS011;39791;53.184;5.486;2023-08-12T11:02:51;31.65;;;28.58;;
53879;SDS011;39791;53.184;5.486;2023-08-12T11:05:21;32.53;;;29.50;;
53879;SDS011;39791;53.184;5.486;2023-08-12T11:10:18;34.33;;;30.92;;
53879;SDS011;39791;53.184;5.486;2023-08-12T11:13:04;34.75;;;31.10;;
53879;SDS011;39791;53.184;5.486;2023-08-12T11:18:05;32.85;;;29.75;;
53879;SDS011;39791;53.184;5.486;2023-08-12T11:20:33;30.48;;;27.38;;
53879;SDS011;39791;53.184;5.486;2023-08-12T11:22:59;30.98;;;27.88;;
53879;SDS011;39791;53.184;5.486;2023-08-12T11:25:25;31.20;;;28.30;;
53879;SDS011;39791;53.184;5.486;2023-08-12T11:27:53;31.55;;;28.52;;
53879;SDS011;39791;53.184;5.486;2023-08-12T11:30:19;32.08;;;28.90;;
53879;SDS011;39791;53.184;5.486;2023-08-12T11:32:47;33.45;;;28.88;;
53879;SDS011;39791;53.184;5.486;2023-08-12T11:35:16;36.22;;;32.67;;
53879;SDS011;39791;53.184;5.486;2023-08-12T11:37:47;33.17;;;29.50;;
53879;SDS011;39791;53.184;5.486;2023-08-12T11:40:14;30.35;;;27.08;;
53879;SDS011;39791;53.184;5.486;2023-08-12T11:42:42;34.50;;;27.77;;
53879;SDS011;39791;53.184;5.486;2023-08-12T11:45:09;33.55;;;30.08;;
53879;SDS011;39791;53.184;5.486;2023-08-12T11:47:37;35.58;;;28.50;;
53879;SDS011;39791;53.184;5.486;2023-08-12T11:50:09;30.83;;;27.40;;
53879;SDS011;39791;53.184;5.486;2023-08-12T11:52:36;32.25;;;27.63;;
53879;SDS011;39791;53.184;5.486;2023-08-12T11:55:03;32.65;;;29.08;;
53879;SDS011;39791;53.184;5.486;2023-08-12T11:57:30;34.17;;;29.13;;
53879;SDS011;39791;53.184;5.486;2023-08-12T11:59:59;33.13;;;29.80;;
53879;SDS011;39791;53.184;5.486;2023-08-12T12:02:25;35.15;;;28.75;;
53879;SDS011;39791;53.184;5.486;2023-08-12T12:04:52;34.53;;;27.88;;
53879;SDS011;39791;53.184;5.486;2023-08-12T12:07:21;35.60;;;28.85;;
53879;SDS011;39791;53.184;5.486;2023-08-12T12:09:52;37.08;;;27.73;;
53879;SDS011;39791;53.184;5.486;2023-08-12T12:12:25;31.20;;;26.90;;
53879;SDS011;39791;53.184;5.486;2023-08-12T12:14:55;34.30;;;25.75;;
53879;SDS011;39791;53.184;5.486;2023-08-12T12:17:24;29.33;;;24.30;;
53879;SDS011;39791;53.184;5.486;2023-08-12T12:19:54;29.35;;;22.35;;
53879;SDS011;39791;53.184;5.486;2023-08-12T12:22:27;28.77;;;24.52;;
53879;SDS011;39791;53.184;5.486;2023-08-12T12:24:58;32.90;;;25.70;;
53879;SDS011;39791;53.184;5.486;2023-08-12T12:27:25;28.38;;;22.95;;
53879;SDS011;39791;53.184;5.486;2023-08-12T12:29:51;33.35;;;25.23;;
53879;SDS011;39791;53.184;5.486;2023-08-12T12:32:20;27.67;;;24.10;;
53879;SDS011;39791;53.184;5.486;2023-08-12T12:34:46;27.38;;;22.98;;
53879;SDS011;39791;53.184;5.486;2023-08-12T12:37:15;27.52;;;23.33;;
53879;SDS011;39791;53.184;5.486;2023-08-12T12:39:41;25.98;;;21.75;;
53879;SDS011;39791;53.184;5.486;2023-08-12T12:42:06;24.92;;;22.33;;
53879;SDS011;39791;53.184;5.486;2023-08-12T12:44:33;29.02;;;24.45;;
53879;SDS011;39791;53.184;5.486;2023-08-12T12:46:59;28.23;;;21.52;;
53879;SDS011;39791;53.184;5.486;2023-08-12T12:49:24;23.27;;;20.48;;
53879;SDS011;39791;53.184;5.486;2023-08-12T12:51:50;27.20;;;20.17;;
53879;SDS011;39791;53.184;5.486;2023-08-12T12:54:16;28.90;;;20.05;;
53879;SDS011;39791;53.184;5.486;2023-08-12T12:56:42;24.17;;;20.35;;
53879;SDS011;39791;53.184;5.486;2023-08-12T12:59:07;29.67;;;19.60;;
53879;SDS011;39791;53.184;5.486;2023-08-12T13:01:33;25.83;;;19.17;;
53879;SDS011;39791;53.184;5.486;2023-08-12T13:03:58;27.05;;;18.33;;
53879;SDS011;39791;53.184;5.486;2023-08-12T13:06:24;22.90;;;18.20;;
53879;SDS011;39791;53.184;5.486;2023-08-12T13:08:50;21.55;;;18.48;;
53879;SDS011;39791;53.184;5.486;2023-08-12T13:11:15;25.58;;;18.73;;
53879;SDS011;39791;53.184;5.486;2023-08-12T13:13:41;27.17;;;18.65;;
53879;SDS011;39791;53.184;5.486;2023-08-12T13:16:07;25.50;;;20.25;;
53879;SDS011;39791;53.184;5.486;2023-08-12T13:18:35;25.25;;;21.58;;
53879;SDS011;39791;53.184;5.486;2023-08-12T13:21:00;28.50;;;20.48;;
53879;SDS011;39791;53.184;5.486;2023-08-12T13:23:26;24.98;;;21.05;;
53879;SDS011;39791;53.184;5.486;2023-08-12T13:25:52;24.75;;;20.63;;
53879;SDS011;39791;53.184;5.486;2023-08-12T13:28:18;23.52;;;19.83;;
53879;SDS011;39791;53.184;5.486;2023-08-12T13:30:47;32.55;;;21.98;;
53879;SDS011;39791;53.184;5.486;2023-08-12T13:33:12;32.58;;;21.30;;
53879;SDS011;39791;53.184;5.486;2023-08-12T13:35:38;28.42;;;21.60;;
53879;SDS011;39791;53.184;5.486;2023-08-12T13:38:04;31.80;;;21.50;;
53879;SDS011;39791;53.184;5.486;2023-08-12T13:40:29;24.00;;;19.73;;
53879;SDS011;39791;53.184;5.486;2023-08-12T13:42:55;27.45;;;21.23;;
53879;SDS011;39791;53.184;5.486;2023-08-12T13:45:21;23.35;;;19.55;;
53879;SDS011;39791;53.184;5.486;2023-08-12T13:47:47;23.95;;;19.33;;
53879;SDS011;39791;53.184;5.486;2023-08-12T13:50:13;24.08;;;19.45;;
53879;SDS011;39791;53.184;5.486;2023-08-12T13:52:39;26.50;;;20.17;;
53879;SDS011;39791;53.184;5.486;2023-08-12T13:55:05;23.83;;;19.60;;
53879;SDS011;39791;53.184;5.486;2023-08-12T13:57:30;20.60;;;17.70;;
53879;SDS011;39791;53.184;5.486;2023-08-12T13:59:56;22.50;;;19.38;;
53879;SDS011;39791;53.184;5.486;2023-08-12T14:02:22;26.63;;;19.42;;
53879;SDS011;39791;53.184;5.486;2023-08-12T14:04:48;26.02;;;20.02;;
53879;SDS011;39791;53.184;5.486;2023-08-12T14:07:14;24.52;;;18.67;;
53879;SDS011;39791;53.184;5.486;2023-08-12T14:09:39;25.40;;;19.50;;
53879;SDS011;39791;53.184;5.486;2023-08-12T14:12:06;26.25;;;20.52;;
53879;SDS011;39791;53.184;5.486;2023-08-12T14:14:31;28.00;;;19.45;;
53879;SDS011;39791;53.184;5.486;2023-08-12T14:16:57;25.00;;;20.95;;
53879;SDS011;39791;53.184;5.486;2023-08-12T14:19:22;32.40;;;21.60;;
53879;SDS011;39791;53.184;5.486;2023-08-12T14:21:48;28.33;;;22.35;;
53879;SDS011;39791;53.184;5.486;2023-08-12T14:24:14;28.35;;;21.88;;